Time;durP1;ratioP1;P1;durP2;ratioP2;P2;SDS_P1;SDS_P2;PMS_P1;PMS_P2;Temp;Humidity;BMP_temperature;BMP_pressure;BME280_temperature;BME280_humidity;BME280_pressure;Samples;Min_cycle;Max_cycle;Signal;HPM_P1;HPM_P2
2021/07/06 10:09:41;;;;;;;7.75;2.13;;;;;;;20.62;49.32;100339.97;5089760;27;20500;-65
2021/07/06 10:12:08;;;;;;;8.45;1.85;;;;;;;20.55;49.15;100327.25;5075738;28;20134;-66
2021/07/06 10:14:34;;;;;;;6.40;1.73;;;;;;;21.39;46.85;100315.53;5072688;28;20499;-64
2021/07/06 10:16:59;;;;;;;5.95;1.70;;;;;;;21.54;46.22;100321.25;5084992;28;20032;-62
2021/07/06 10:19:25;;;;;;;7.63;1.77;;;;;;;21.03;47.22;100339.69;5087073;28;20028;-64
2021/07/06 10:21:50;;;;;;;7.00;2.00;;;;;;;20.72;49.65;100334.59;5086482;28;20028;-65
2021/07/06 10:24:18;;;;;;;10.93;1.92;;;;;;;20.12;49.80;100314.19;5086371;28;20383;-65
2021/07/06 10:26:44;;;;;;;11.10;2.35;;;;;;;19.80;50.33;100344.03;5086217;28;20032;-61
2021/07/06 10:29:10;;;;;;;14.95;2.42;;;;;;;19.93;50.42;100384.09;5085628;28;20028;-62
2021/07/06 10:31:43;;;;;;;17.40;2.15;;;;;;;20.42;49.39;100381.34;5075483;28;20554;-62
2021/07/06 10:34:20;;;;;;;11.90;1.92;;;;;;;20.55;49.08;100329.94;5084087;28;20456;-64
2021/07/06 10:36:46;;;;;;;8.05;2.03;;;;;;;20.46;49.16;100354.03;5086409;28;20028;-65
2021/07/06 10:39:13;;;;;;;6.30;1.90;;;;;;;20.66;48.86;100353.16;5086020;28;20511;-63
2021/07/06 10:41:38;;;;;;;6.80;1.70;;;;;;;20.99;47.70;100370.59;5085988;28;20544;-64
2021/07/06 10:44:06;;;;;;;6.53;1.97;;;;;;;21.07;47.22;100359.09;5085027;28;20103;-64
2021/07/06 10:46:37;;;;;;;11.38;2.10;;;;;;;20.52;48.46;100357.16;5085745;28;20424;-60
2021/07/06 10:49:07;;;;;;;10.57;1.67;;;;;;;20.04;50.36;100356.22;5086421;28;20060;-63
2021/07/06 10:51:39;;;;;;;8.70;2.72;;;;;;;20.06;51.33;100381.13;5086016;28;20029;-61
2021/07/06 10:54:20;;;;;;;7.53;1.55;;;;;;;19.90;50.51;100370.94;5085669;28;20043;-63
2021/07/06 10:56:46;;;;;;;;;;;;;;;20.03;50.15;100360.75;5070223;28;20796;-63
2021/07/06 10:59:26;;;;;;;10.40;2.47;;;;;;;20.44;49.85;100393.66;5083854;28;20018;-60
2021/07/06 11:01:57;;;;;;;9.85;1.88;;;;;;;20.42;49.53;100395.66;5078862;28;20115;-64
2021/07/06 11:04:46;;;;;;;6.90;1.80;;;;;;;20.21;50.90;100377.00;5084593;28;20375;-61
2021/07/06 11:07:16;;;;;;;7.03;1.80;;;;;;;19.99;51.19;100388.91;5083292;28;20277;-64
2021/07/06 11:09:41;;;;;;;5.90;1.80;;;;;;;19.67;51.83;100389.09;5082248;28;20020;-65
2021/07/06 11:12:25;;;;;;;6.50;1.77;;;;;;;19.39;52.42;100378.19;5081599;28;20028;-66
2021/07/06 11:14:55;;;;;;;7.35;1.50;;;;;;;19.75;51.41;100360.56;5085472;28;20286;-65
2021/07/06 11:17:36;;;;;;;10.85;2.30;;;;;;;19.75;51.62;100375.84;5080488;28;20066;-61
2021/07/06 11:20:05;;;;;;;;;;;;;;;19.67;51.93;100375.69;5074653;28;20028;-64
2021/07/06 11:22:50;;;;;;;10.48;1.90;;;;;;;19.64;52.01;100392.91;5068401;28;20352;-62
2021/07/06 11:25:36;;;;;;;4.70;1.70;;;;;;;19.43;51.89;100404.63;5073787;28;20012;-65
2021/07/06 11:28:06;;;;;;;9.05;2.00;;;;;;;19.19;53.02;100378.13;5074074;28;20101;-63
2021/07/06 11:30:39;;;;;;;8.38;1.83;;;;;;;19.14;53.30;100391.97;5074691;28;20476;-63
2021/07/06 11:33:13;;;;;;;8.90;2.00;;;;;;;19.25;53.73;100428.56;5074073;28;20081;-59
2021/07/06 11:35:56;;;;;;;9.10;2.40;;;;;;;19.39;53.72;100395.13;5067426;28;20426;-65
2021/07/06 11:38:37;;;;;;;13.48;2.20;;;;;;;19.37;53.18;100425.78;5074155;28;20032;-63
2021/07/06 11:41:05;;;;;;;9.13;1.97;;;;;;;19.37;54.07;100404.31;5073916;28;20028;-64
2021/07/06 11:43:31;;;;;;;7.75;1.98;;;;;;;19.79;52.55;100409.50;5074641;28;20274;-62
2021/07/06 11:46:05;;;;;;;7.57;1.90;;;;;;;19.70;53.14;100419.22;5075021;28;20016;-61
2021/07/06 11:48:36;;;;;;;6.85;1.85;;;;;;;19.65;52.64;100414.28;5074705;28;20488;-64
2021/07/06 11:51:04;;;;;;;9.48;2.00;;;;;;;19.51;53.26;100400.41;5071351;28;20166;-63
2021/07/06 11:53:35;;;;;;;8.45;1.70;;;;;;;19.25;53.76;100409.78;5069015;28;20077;-62
2021/07/06 11:56:04;;;;;;;7.85;2.13;;;;;;;19.15;54.34;100425.00;5070215;28;20040;-63
2021/07/06 11:58:32;;;;;;;10.77;2.15;;;;;;;19.16;55.05;100422.19;5071864;28;20024;-63
2021/07/06 12:00:59;;;;;;;4.38;1.70;;;;;;;19.20;55.35;100413.88;5054532;28;20056;-63
2021/07/06 12:03:28;;;;;;;13.85;2.53;;;;;;;19.07;55.09;100433.72;5056691;28;20028;-61
2021/07/06 12:06:01;;;;;;;11.55;2.55;;;;;;;19.08;55.82;100423.84;5067341;28;20020;-63
2021/07/06 12:08:30;;;;;;;5.80;2.15;;;;;;;19.41;55.15;100446.00;5073837;28;20101;-65
2021/07/06 12:11:11;;;;;;;13.07;3.38;;;;;;;19.75;53.85;100451.91;5074001;28;20051;-64
2021/07/06 12:13:40;;;;;;;10.48;2.35;;;;;;;19.53;54.41;100449.44;5073379;28;20021;-66
2021/07/06 12:16:08;;;;;;;14.35;3.75;;;;;;;19.40;54.87;100463.09;5073757;28;20033;-63
2021/07/06 12:18:36;;;;;;;13.65;2.55;;;;;;;19.26;55.12;100448.22;5073816;28;20040;-65
2021/07/06 12:21:07;;;;;;;10.85;2.45;;;;;;;19.12;56.20;100465.53;5073650;28;20479;-64
2021/07/06 12:23:46;;;;;;;9.05;2.30;;;;;;;18.96;57.30;100449.91;5073435;28;20492;-61
2021/07/06 12:26:12;;;;;;;12.20;2.95;;;;;;;19.01;56.86;100471.81;5073330;28;20115;-61
2021/07/06 12:28:40;;;;;;;8.23;2.50;;;;;;;19.21;55.24;100454.00;5073731;28;20031;-60
2021/07/06 12:31:14;;;;;;;8.65;2.10;;;;;;;19.88;53.59;100470.47;5072544;28;20039;-63
2021/07/06 12:33:44;;;;;;;6.93;2.00;;;;;;;20.66;51.86;100464.28;5073800;28;20104;-64
2021/07/06 12:36:10;;;;;;;9.57;2.60;;;;;;;20.80;51.99;100476.47;5072841;28;20035;-65
2021/07/06 12:38:35;;;;;;;6.15;2.28;;;;;;;20.86;51.74;100472.38;5072894;28;20021;-63
2021/07/06 12:41:14;;;;;;;14.63;2.20;;;;;;;21.25;50.85;100466.84;5072951;28;20028;-62
2021/07/06 12:43:40;;;;;;;8.65;1.80;;;;;;;21.24;51.12;100476.78;5073449;28;20025;-63
2021/07/06 12:46:07;;;;;;;9.95;2.30;;;;;;;20.92;52.44;100485.22;5071207;28;20020;-65
2021/07/06 12:48:32;;;;;;;10.00;2.53;;;;;;;21.17;52.21;100483.75;5072641;28;20024;-63
2021/07/06 12:51:10;;;;;;;10.75;2.47;;;;;;;21.60;50.26;100494.97;5060607;28;20465;-63
2021/07/06 12:53:35;;;;;;;13.10;3.40;;;;;;;21.11;51.70;100482.50;5072902;28;20056;-63
2021/07/06 12:56:01;;;;;;;11.77;2.38;;;;;;;21.16;51.37;100492.81;5073216;28;20064;-63
2021/07/06 12:58:29;;;;;;;17.67;2.65;;;;;;;21.57;49.94;100488.03;5070889;28;20548;-63
2021/07/06 13:00:54;;;;;;;10.82;2.75;;;;;;;20.85;51.17;100501.09;5065303;28;20468;-61
2021/07/06 13:03:20;;;;;;;9.38;1.80;;;;;;;20.68;51.70;100504.50;5072976;28;20020;-63
2021/07/06 13:06:04;;;;;;;4.53;1.65;;;;;;;20.36;52.73;100508.31;5071529;28;20025;-62
2021/07/06 13:08:30;;;;;;;3.92;1.60;;;;;;;20.26;53.59;100527.16;5067886;28;20378;-65
2021/07/06 13:11:05;;;;;;;7.85;1.55;;;;;;;19.93;54.32;100508.53;5072718;28;20468;-63
2021/07/06 13:13:33;;;;;;;6.00;1.70;;;;;;;19.76;55.36;100526.16;5071719;28;20055;-61
2021/07/06 13:16:00;;;;;;;8.93;1.42;;;;;;;19.74;54.76;100528.09;5073477;28;20027;-63
2021/07/06 13:18:41;;;;;;;7.82;1.80;;;;;;;19.70;55.56;100521.31;5072848;28;20028;-65
2021/07/06 13:21:09;;;;;;;5.03;1.60;;;;;;;19.78;54.79;100537.63;5069984;28;20033;-64
2021/07/06 13:23:35;;;;;;;5.03;1.63;;;;;;;19.98;54.64;100526.94;5058449;28;20029;-65
2021/07/06 13:26:02;;;;;;;4.75;1.70;;;;;;;19.95;55.23;100544.19;5062014;28;20030;-65
2021/07/06 13:28:27;;;;;;;8.52;1.70;;;;;;;19.69;56.41;100546.47;5070222;28;20051;-65
2021/07/06 13:30:54;;;;;;;3.97;1.45;;;;;;;19.34;56.60;100558.47;5072568;28;20033;-64
2021/07/06 13:33:20;;;;;;;10.15;1.67;;;;;;;18.77;59.51;100557.91;5072291;28;20028;-64
2021/07/06 13:35:48;;;;;;;6.18;2.10;;;;;;;18.41;65.20;100579.59;5071151;28;20027;-64
2021/07/06 13:38:16;;;;;;;4.07;1.75;;;;;;;17.64;70.67;100607.19;5071774;28;20020;-63
2021/07/06 13:40:42;;;;;;;4.10;1.98;;;;;;;17.32;73.66;100607.88;5071453;28;20085;-63
2021/07/06 13:43:08;;;;;;;7.60;2.25;;;;;;;17.28;73.50;100612.59;5072534;28;20464;-64
2021/07/06 13:45:33;;;;;;;5.70;1.60;;;;;;;17.36;72.78;100607.50;5072023;28;20032;-64
2021/07/06 13:47:59;;;;;;;13.65;2.97;;;;;;;17.29;70.56;100610.75;5072550;28;20031;-65
2021/07/06 13:50:24;;;;;;;4.28;1.55;;;;;;;16.76;71.56;100625.38;5071233;28;20407;-64
2021/07/06 13:52:51;;;;;;;2.40;1.15;;;;;;;16.52;69.33;100620.91;5072297;28;20082;-63
2021/07/06 13:58:12;;;;;;;4.78;2.03;;;;;;;16.33;71.94;100633.88;5008893;28;20069;-65
2021/07/06 14:00:39;;;;;;;4.55;1.60;;;;;;;16.18;72.71;100633.19;5009704;28;20037;-65
2021/07/06 14:03:10;;;;;;;8.80;2.33;;;;;;;15.94;72.44;100628.63;5009296;28;20529;-63
2021/07/06 14:05:39;;;;;;;5.30;1.77;;;;;;;15.82;73.75;100632.13;5008624;28;20030;-65
2021/07/06 14:08:04;;;;;;;9.15;2.88;;;;;;;15.91;73.49;100641.31;5008754;28;20073;-64
2021/07/06 14:10:30;;;;;;;7.30;2.15;;;;;;;16.25;73.36;100631.75;5004057;28;20315;-64
2021/07/06 14:12:57;;;;;;;5.63;2.10;;;;;;;16.97;70.47;100619.41;5004009;28;20034;-62
2021/07/06 14:15:23;;;;;;;6.50;2.13;;;;;;;17.51;69.14;100631.38;5007149;28;20711;-60
2021/07/06 14:17:49;;;;;;;4.32;1.88;;;;;;;17.97;65.91;100635.84;5009137;28;20502;-65
2021/07/06 14:20:15;;;;;;;8.77;2.30;;;;;;;18.54;66.21;100625.03;5007085;28;20065;-65
2021/07/06 14:22:42;;;;;;;6.63;2.25;;;;;;;18.83;62.73;100629.81;5008643;28;20069;-64
2021/07/06 14:25:08;;;;;;;5.95;1.92;;;;;;;18.66;62.94;100631.22;5008787;28;20616;-63
2021/07/06 14:27:34;;;;;;;5.95;2.10;;;;;;;18.70;63.01;100639.88;5008848;28;20069;-62
2021/07/06 14:29:59;;;;;;;7.25;2.00;;;;;;;18.64;63.52;100647.47;5008411;28;20069;-64
2021/07/06 14:32:25;;;;;;;7.63;2.45;;;;;;;18.69;63.74;100630.97;5009408;28;20088;-65
2021/07/06 14:34:50;;;;;;;6.20;2.05;;;;;;;18.90;62.26;100616.78;5042821;28;20071;-65
2021/07/06 14:37:20;;;;;;;4.60;2.13;;;;;;;19.54;61.09;100636.44;5063695;28;20028;-65
2021/07/06 14:39:46;;;;;;;7.22;2.15;;;;;;;19.57;60.53;100631.66;5069028;28;20059;-65
2021/07/06 14:42:11;;;;;;;4.60;2.05;;;;;;;19.14;61.70;100648.75;5070118;28;20051;-64
2021/07/06 14:44:37;;;;;;;6.68;1.92;;;;;;;19.01;62.03;100638.19;5070850;28;20492;-65
2021/07/06 14:47:04;;;;;;;8.50;2.03;;;;;;;18.81;62.99;100648.75;5068554;28;20365;-63
2021/07/06 14:49:30;;;;;;;5.70;1.70;;;;;;;18.75;61.97;100645.72;5066533;28;20033;-62
2021/07/06 14:51:55;;;;;;;6.47;1.88;;;;;;;18.83;62.92;100649.44;5063392;28;20017;-63
2021/07/06 14:54:21;;;;;;;6.95;1.98;;;;;;;19.56;60.09;100655.97;5068025;28;20078;-64
2021/07/06 14:56:46;;;;;;;5.43;1.60;;;;;;;20.06;58.09;100640.00;5073129;28;20099;-65
2021/07/06 14:59:12;;;;;;;7.47;1.70;;;;;;;20.07;57.86;100641.69;5073678;28;20025;-63
2021/07/06 15:01:37;;;;;;;5.90;1.90;;;;;;;19.88;57.91;100663.13;5066132;28;20033;-63
2021/07/06 15:04:02;;;;;;;5.60;1.60;;;;;;;19.56;58.85;100670.25;5071721;28;20056;-64
2021/07/06 15:06:28;;;;;;;6.97;1.67;;;;;;;19.39;59.57;100663.63;5069002;28;20067;-60
2021/07/06 15:08:57;;;;;;;9.05;2.42;;;;;;;19.64;59.57;100666.91;5069892;28;20037;-64
2021/07/06 15:11:24;;;;;;;9.00;2.85;;;;;;;19.59;57.98;100669.13;5073338;28;20036;-62
2021/07/06 15:13:49;;;;;;;8.20;2.42;;;;;;;19.41;56.02;100669.75;5072805;28;20033;-65
2021/07/06 15:16:16;;;;;;;10.57;2.33;;;;;;;19.16;57.39;100650.31;5063304;28;20023;-63
2021/07/06 15:18:41;;;;;;;8.80;3.10;;;;;;;18.84;61.05;100687.88;5067318;28;20024;-63
2021/07/06 15:21:07;;;;;;;11.30;2.65;;;;;;;18.40;64.31;100693.22;5070860;28;20074;-64
2021/07/06 15:23:32;;;;;;;8.80;1.90;;;;;;;18.05;65.40;100701.38;5073326;28;20037;-62
2021/07/06 15:25:57;;;;;;;10.80;2.00;;;;;;;18.30;65.41;100697.56;5070862;28;20016;-62
2021/07/06 15:28:23;;;;;;;8.15;2.05;;;;;;;19.01;62.23;100696.41;5073450;28;20028;-62
2021/07/06 15:30:48;;;;;;;9.88;2.30;;;;;;;19.10;61.85;100680.34;5074073;28;20032;-61
2021/07/06 15:33:14;;;;;;;10.75;2.63;;;;;;;19.28;60.73;100703.97;5070380;28;20055;-64
2021/07/06 15:35:39;;;;;;;10.20;2.80;;;;;;;19.84;60.66;100692.09;5070879;28;20024;-64
2021/07/06 15:38:05;;;;;;;12.88;3.28;;;;;;;20.49;58.15;100694.50;5071011;28;20029;-63
2021/07/06 15:40:31;;;;;;;10.27;2.47;;;;;;;21.06;55.89;100704.66;5062932;28;20071;-64
2021/07/06 15:42:58;;;;;;;8.02;1.83;;;;;;;21.53;53.72;100702.09;5070333;28;20024;-62
2021/07/06 15:45:25;;;;;;;9.35;2.10;;;;;;;21.52;53.09;100708.50;5070324;28;20460;-62
2021/07/06 15:47:52;;;;;;;8.10;2.08;;;;;;;20.87;53.82;100690.22;5071280;28;20060;-62
2021/07/06 15:50:18;;;;;;;11.40;2.10;;;;;;;20.51;54.81;100718.56;5071676;28;20113;-63
2021/07/06 15:52:44;;;;;;;13.85;2.83;;;;;;;20.29;54.82;100725.84;5074463;28;20025;-65
2021/07/06 15:55:10;;;;;;;9.43;2.30;;;;;;;20.63;52.60;100710.25;5074121;28;20484;-66
2021/07/06 15:57:35;;;;;;;10.43;3.17;;;;;;;20.63;52.90;100693.25;5074449;28;20025;-64
2021/07/06 16:00:02;;;;;;;10.88;2.20;;;;;;;20.01;54.05;100722.03;5074246;28;20349;-63
2021/07/06 16:02:27;;;;;;;10.93;2.33;;;;;;;19.52;54.68;100727.91;5074054;28;20039;-64
2021/07/06 16:04:53;;;;;;;10.27;2.25;;;;;;;19.29;58.74;100737.88;5073992;28;20012;-65
2021/07/06 16:07:19;;;;;;;8.00;1.98;;;;;;;19.65;57.99;100735.75;5074256;28;20032;-64
2021/07/06 16:09:47;;;;;;;9.57;2.25;;;;;;;19.95;56.74;100751.13;5073272;28;20102;-64
2021/07/06 16:12:14;;;;;;;9.45;2.15;;;;;;;19.85;54.73;100736.78;5071519;28;20040;-61
2021/07/06 16:14:39;;;;;;;12.05;1.90;;;;;;;19.51;56.27;100745.00;5064709;28;20036;-63
2021/07/06 16:17:05;;;;;;;9.23;2.00;;;;;;;19.27;56.81;100745.22;5064694;28;20463;-63
2021/07/06 16:19:30;;;;;;;7.00;2.00;;;;;;;19.32;56.48;100759.97;5073249;28;20458;-61
2021/07/06 16:21:55;;;;;;;10.82;2.10;;;;;;;19.48;56.29;100754.16;5067630;28;20040;-62
2021/07/06 16:24:21;;;;;;;7.03;1.83;;;;;;;19.32;56.00;100743.00;5073110;28;20119;-64
2021/07/06 16:26:46;;;;;;;8.70;2.00;;;;;;;19.09;56.69;100764.56;5067937;28;20037;-61
2021/07/06 16:29:11;;;;;;;8.50;1.88;;;;;;;18.98;57.75;100776.16;5074457;28;20587;-64
2021/07/06 16:31:37;;;;;;;9.25;2.55;;;;;;;18.96;56.59;100778.13;5072911;28;20457;-61
2021/07/06 16:34:02;;;;;;;8.60;1.80;;;;;;;19.43;55.42;100775.16;5072968;28;20037;-63
2021/07/06 16:36:28;;;;;;;10.80;2.70;;;;;;;20.08;53.13;100769.75;5073743;28;20036;-64
2021/07/06 16:38:53;;;;;;;14.75;2.30;;;;;;;20.29;50.60;100739.28;5073706;28;20434;-61
2021/07/06 16:41:23;;;;;;;15.40;2.13;;;;;;;20.18;50.86;100744.75;5073416;28;20031;-66
2021/07/06 16:43:49;;;;;;;10.70;2.63;;;;;;;19.95;50.20;100782.53;5073389;28;20051;-64
2021/07/06 16:46:14;;;;;;;9.02;2.65;;;;;;;19.93;50.25;100788.03;5072983;28;20032;-65
2021/07/06 16:48:40;;;;;;;12.70;2.13;;;;;;;19.89;50.53;100756.19;5073286;28;20379;-61
2021/07/06 17:59:47;;;;;;;13.82;2.90;;;;;;;18.10;53.68;100884.91;4962773;28;20411;-64
2021/07/06 18:05:14;;;;;;;11.30;2.60;;;;;;;18.15;52.57;100889.94;4933287;29;20399;-65
2021/07/06 18:07:39;;;;;;;13.88;3.13;;;;;;;18.23;52.61;100892.88;4933033;29;20107;-64
2021/07/06 18:10:05;;;;;;;11.27;2.80;;;;;;;18.16;52.51;100879.09;4929703;29;20503;-60
2021/07/06 18:12:30;;;;;;;11.77;3.30;;;;;;;18.05;53.27;100907.69;4973228;28;20046;-64
2021/07/06 18:14:55;;;;;;;8.65;3.00;;;;;;;17.97;53.82;100908.28;5010593;28;20026;-63
2021/07/06 18:17:21;;;;;;;9.38;2.75;;;;;;;17.93;53.30;100872.81;5004856;28;20030;-65
2021/07/06 18:19:46;;;;;;;11.75;2.50;;;;;;;17.98;53.13;100899.22;5009813;28;20046;-64
2021/07/06 18:22:11;;;;;;;11.48;2.50;;;;;;;17.94;52.99;100892.41;5010635;28;20046;-64
2021/07/06 18:24:37;;;;;;;11.95;2.70;;;;;;;17.95;52.26;100921.75;5010744;28;20030;-64
2021/07/06 18:27:03;;;;;;;9.63;2.75;;;;;;;17.87;52.85;100918.78;5009626;28;20505;-61
2021/07/06 18:29:28;;;;;;;11.25;2.55;;;;;;;17.88;52.75;100914.25;5011205;28;20068;-65
2021/07/06 18:31:54;;;;;;;11.15;2.42;;;;;;;17.86;53.33;100919.72;5013743;28;20070;-65
2021/07/06 18:34:20;;;;;;;14.50;2.85;;;;;;;17.81;53.50;100938.84;4998209;28;20113;-65
2021/07/06 18:36:45;;;;;;;12.45;2.63;;;;;;;17.75;53.58;100919.69;5005516;28;20041;-64
2021/07/06 18:39:11;;;;;;;8.23;2.50;;;;;;;17.70;54.14;100928.06;5040192;28;20037;-64
2021/07/06 18:41:37;;;;;;;11.82;2.65;;;;;;;17.65;55.06;100946.28;5055180;28;20542;-63
2021/07/06 18:44:03;;;;;;;11.48;2.50;;;;;;;17.57;55.73;100938.81;5055627;28;20384;-61
2021/07/06 18:46:30;;;;;;;12.40;2.88;;;;;;;17.55;56.33;100954.13;5066636;28;20078;-62
2021/07/06 18:49:00;;;;;;;13.23;3.47;;;;;;;17.53;57.04;100954.25;5074804;28;20409;-65
2021/07/06 18:51:27;;;;;;;12.32;3.15;;;;;;;17.49;57.15;100934.03;5056328;28;20087;-62
2021/07/06 18:53:52;;;;;;;18.50;4.30;;;;;;;17.45;57.92;100951.25;5075836;28;20112;-64
2021/07/06 18:56:18;;;;;;;17.95;3.63;;;;;;;17.44;57.81;100972.78;5072807;28;20111;-63
2021/07/06 18:58:43;;;;;;;15.60;2.80;;;;;;;17.43;58.48;100960.38;5074351;28;20025;-64
2021/07/06 19:01:11;;;;;;;8.98;2.67;;;;;;;17.39;58.91;100958.88;5072636;28;20101;-65
2021/07/06 19:03:36;;;;;;;13.68;2.75;;;;;;;17.34;58.81;100980.63;5073632;28;20024;-64
2021/07/06 19:06:02;;;;;;;10.20;2.72;;;;;;;17.32;58.88;100974.53;5075927;28;20044;-65
2021/07/06 19:08:29;;;;;;;11.45;2.67;;;;;;;17.24;59.47;100988.47;5075550;28;20024;-64
2021/07/06 19:10:55;;;;;;;10.57;2.92;;;;;;;17.18;59.98;100987.06;5054814;28;20112;-64
2021/07/06 19:13:23;;;;;;;10.45;2.65;;;;;;;17.12;59.64;100983.97;5055708;28;20739;-64
2021/07/06 19:15:48;;;;;;;11.55;2.72;;;;;;;17.07;59.75;100981.59;5065626;28;20033;-65
2021/07/06 19:18:13;;;;;;;8.27;2.50;;;;;;;17.03;59.75;100989.00;5075371;28;20028;-62
2021/07/06 19:20:39;;;;;;;12.07;3.08;;;;;;;16.99;59.47;101000.03;5075386;28;20638;-62
2021/07/06 19:23:04;;;;;;;15.32;2.78;;;;;;;16.96;59.69;101006.44;5074417;28;20031;-63
2021/07/06 19:33:31;;;;;;;14.07;2.72;;;;;;;16.76;60.62;101012.28;5074682;28;19927;-64
2021/07/06 19:35:56;;;;;;;11.25;2.60;;;;;;;16.73;61.07;101020.47;5075612;28;20020;-64
2021/07/06 19:38:22;;;;;;;9.43;2.90;;;;;;;16.67;61.03;101030.63;5073172;28;20094;-62
2021/07/06 19:40:47;;;;;;;15.43;2.97;;;;;;;16.61;60.83;101027.53;5071860;28;20111;-64
2021/07/06 19:43:12;;;;;;;12.48;2.97;;;;;;;16.55;61.49;101032.34;5072095;28;20033;-65
2021/07/06 19:45:38;;;;;;;10.70;2.78;;;;;;;16.50;61.28;101033.59;5056274;28;20021;-63
2021/07/06 19:48:03;;;;;;;15.05;2.83;;;;;;;16.45;61.76;101033.06;5069180;28;20032;-61
2021/07/06 19:50:28;;;;;;;10.65;2.90;;;;;;;16.44;61.35;101032.19;5072157;28;20032;-64
2021/07/06 19:52:54;;;;;;;9.48;2.80;;;;;;;16.40;61.81;101045.88;5072353;28;20116;-63
2021/07/06 19:55:23;;;;;;;12.05;3.15;;;;;;;16.35;61.97;101036.31;5073598;28;20097;-61
2021/07/06 19:57:48;;;;;;;8.45;2.60;;;;;;;16.28;62.36;101042.16;5074947;28;20460;-64
2021/07/06 20:00:14;;;;;;;6.50;2.60;;;;;;;16.23;62.63;101045.16;5075202;28;20064;-64
2021/07/06 20:02:39;;;;;;;15.38;3.20;;;;;;;16.21;62.35;101044.41;5074297;28;20025;-64
2021/07/06 20:05:05;;;;;;;12.25;2.88;;;;;;;16.20;62.15;101048.03;5074493;28;20357;-60
2021/07/06 20:07:30;;;;;;;9.68;2.95;;;;;;;16.13;62.50;101054.75;5072756;28;20052;-62
2021/07/06 20:09:56;;;;;;;10.95;2.75;;;;;;;16.10;62.76;101058.47;5074502;28;20052;-65
2021/07/06 20:12:22;;;;;;;9.25;2.95;;;;;;;16.12;62.42;101061.03;5074282;28;20062;-64
2021/07/06 20:14:47;;;;;;;11.80;2.60;;;;;;;16.09;62.52;101070.09;5074715;28;20032;-63
2021/07/06 20:17:12;;;;;;;12.02;2.85;;;;;;;16.11;62.87;101064.66;5074289;28;20047;-63
2021/07/06 20:19:38;;;;;;;15.27;3.75;;;;;;;16.11;63.01;101067.31;5073752;28;20032;-64
2021/07/06 20:22:03;;;;;;;8.77;3.00;;;;;;;16.05;62.59;101077.44;5073679;28;20480;-63
2021/07/06 20:24:29;;;;;;;9.38;2.80;;;;;;;16.07;62.10;101077.34;5074584;28;20033;-64
2021/07/06 20:26:54;;;;;;;17.80;3.03;;;;;;;16.07;62.09;101068.50;5056439;28;20031;-64
2021/07/06 20:29:19;;;;;;;8.32;2.42;;;;;;;16.07;61.41;101069.34;5054244;28;20040;-64
2021/07/06 20:31:45;;;;;;;8.23;2.55;;;;;;;16.09;61.00;101080.78;5060691;28;20349;-64
2021/07/06 20:34:10;;;;;;;8.13;2.88;;;;;;;16.10;60.78;101079.84;5073712;28;20029;-65
2021/07/06 20:36:35;;;;;;;8.50;2.47;;;;;;;16.09;60.88;101082.59;5073780;28;20158;-64
2021/07/06 20:39:01;;;;;;;7.18;2.33;;;;;;;16.08;61.17;101084.41;5073557;28;20058;-65
2021/07/06 20:41:26;;;;;;;7.30;2.47;;;;;;;16.13;60.92;101087.66;5054269;28;20045;-62
2021/07/06 20:43:56;;;;;;;11.20;3.30;;;;;;;16.10;61.15;101084.31;5065439;28;20044;-64
2021/07/06 20:46:22;;;;;;;8.35;2.80;;;;;;;16.14;61.29;101078.69;5074251;28;20081;-64
2021/07/06 20:48:48;;;;;;;11.75;2.50;;;;;;;16.21;60.84;101092.50;5073587;28;20028;-64
2021/07/06 20:51:14;;;;;;;10.70;2.30;;;;;;;16.19;60.87;101092.59;5073284;28;20035;-62
2021/07/06 20:53:39;;;;;;;8.70;3.30;;;;;;;16.17;61.02;101093.66;5071813;28;20020;-62
2021/07/06 20:56:04;;;;;;;14.20;2.90;;;;;;;16.18;60.91;101100.72;5063374;28;20099;-63
2021/07/06 20:58:30;;;;;;;9.73;2.58;;;;;;;16.23;60.48;101093.25;5060892;28;20028;-65
2021/07/06 21:00:56;;;;;;;10.25;2.30;;;;;;;16.24;60.11;101103.00;5073848;28;20068;-64
2021/07/06 21:03:22;;;;;;;8.60;2.30;;;;;;;16.27;59.77;101099.28;5073285;28;20025;-62
2021/07/06 21:05:47;;;;;;;10.85;2.65;;;;;;;16.25;59.29;101102.03;5072741;28;20020;-64
2021/07/06 21:08:12;;;;;;;9.07;2.58;;;;;;;16.19;60.27;101107.78;5073672;28;20043;-64
2021/07/06 21:10:38;;;;;;;9.35;3.22;;;;;;;16.15;60.41;101103.56;5072846;28;20098;-64
2021/07/06 21:13:03;;;;;;;10.02;2.58;;;;;;;16.09;60.56;101111.97;5073585;28;20044;-62
2021/07/06 21:15:28;;;;;;;10.75;2.50;;;;;;;16.10;61.07;101117.25;5073235;28;20031;-64
2021/07/06 21:17:54;;;;;;;14.57;2.95;;;;;;;16.07;60.64;101119.25;5072917;28;20902;-62
2021/07/06 21:20:19;;;;;;;11.57;2.50;;;;;;;16.08;60.62;101132.50;5072623;28;20119;-63
2021/07/06 21:22:44;;;;;;;14.68;2.90;;;;;;;16.04;60.92;101126.50;5073554;28;20105;-62
2021/07/06 21:25:11;;;;;;;9.18;2.60;;;;;;;15.99;60.96;101127.75;5073173;28;20025;-64
2021/07/06 21:27:37;;;;;;;8.32;2.83;;;;;;;15.93;61.27;101141.47;5072790;28;20052;-63
2021/07/06 21:30:05;;;;;;;6.40;2.22;;;;;;;15.91;61.16;101138.03;5070680;28;20119;-64
2021/07/06 21:32:30;;;;;;;11.55;2.40;;;;;;;15.87;61.17;101146.25;5067276;28;20024;-64
2021/07/06 21:34:56;;;;;;;11.57;2.75;;;;;;;15.88;61.10;101137.28;5070415;28;20346;-64
2021/07/06 21:37:21;;;;;;;9.25;2.55;;;;;;;15.80;61.39;101149.38;5072522;28;20016;-64
2021/07/06 21:39:47;;;;;;;9.02;2.50;;;;;;;15.76;61.77;101150.53;5073343;28;20071;-64
2021/07/06 21:42:12;;;;;;;10.75;2.70;;;;;;;15.68;62.08;101149.16;5072215;28;20390;-62
2021/07/06 21:44:37;;;;;;;9.20;2.60;;;;;;;15.64;62.23;101150.31;5072997;28;20367;-62
2021/07/06 21:47:03;;;;;;;11.63;2.70;;;;;;;15.62;61.84;101154.88;5073127;28;20032;-61
2021/07/06 21:49:28;;;;;;;6.63;2.30;;;;;;;15.60;61.94;101158.59;5072208;28;20542;-61
2021/07/06 21:51:58;;;;;;;9.80;2.58;;;;;;;15.55;62.08;101164.22;5072490;28;20032;-63
2021/07/06 21:54:23;;;;;;;10.82;2.50;;;;;;;15.53;62.29;101158.13;5073205;28;20131;-63
2021/07/06 21:56:48;;;;;;;12.88;2.70;;;;;;;15.47;62.65;101153.16;5072154;28;20472;-62
2021/07/06 21:59:14;;;;;;;8.05;2.70;;;;;;;15.49;61.79;101152.09;5072888;28;20025;-64
2021/07/06 22:01:39;;;;;;;6.65;2.20;;;;;;;15.55;61.91;101143.72;5073046;28;20028;-65
2021/07/06 22:04:05;;;;;;;7.28;2.28;;;;;;;15.59;61.62;101154.19;5068665;28;20024;-61
2021/07/06 22:06:30;;;;;;;8.82;2.60;;;;;;;15.63;61.70;101155.75;5052577;28;20107;-64
2021/07/06 22:08:55;;;;;;;10.95;2.45;;;;;;;15.65;61.39;101156.50;5072247;28;20398;-62
2021/07/06 22:11:21;;;;;;;9.77;2.30;;;;;;;15.66;61.05;101150.22;5071387;28;20408;-64
2021/07/06 22:13:46;;;;;;;6.25;1.98;;;;;;;15.70;60.91;101151.75;5072304;28;20025;-64
2021/07/06 22:16:11;;;;;;;6.53;2.20;;;;;;;15.72;60.89;101160.53;5071960;28;20025;-63
2021/07/06 22:18:37;;;;;;;9.10;2.80;;;;;;;15.77;60.69;101163.75;5072224;28;20498;-63
2021/07/06 22:21:02;;;;;;;7.78;2.20;;;;;;;15.77;60.91;101154.88;5072342;28;20046;-64
2021/07/06 22:23:27;;;;;;;7.10;2.63;;;;;;;15.72;60.99;101156.03;5071905;28;20945;-62
2021/07/06 22:25:53;;;;;;;5.32;2.20;;;;;;;15.76;60.62;101151.38;5072162;28;20024;-64
2021/07/06 22:28:19;;;;;;;9.15;2.40;;;;;;;15.78;61.06;101153.94;5071910;28;20075;-64
2021/07/06 22:30:44;;;;;;;12.35;2.20;;;;;;;15.80;61.17;101152.88;5072088;28;20048;-63
2021/07/06 22:33:10;;;;;;;6.72;2.50;;;;;;;15.81;60.90;101156.44;5072408;28;20033;-63
2021/07/06 22:35:36;;;;;;;6.20;2.17;;;;;;;15.80;60.74;101160.91;5072269;28;20112;-63
2021/07/06 22:38:02;;;;;;;6.85;2.03;;;;;;;15.79;61.36;101161.00;5071956;28;20425;-64
2021/07/06 22:40:27;;;;;;;8.45;2.03;;;;;;;15.83;61.18;101147.41;5071926;28;20059;-65
2021/07/06 22:42:53;;;;;;;7.82;2.60;;;;;;;15.83;61.15;101155.41;5071904;28;20376;-61
2021/07/06 22:45:19;;;;;;;8.38;1.92;;;;;;;15.86;60.93;101152.53;5072460;28;20108;-64
2021/07/06 22:47:44;;;;;;;4.85;2.42;;;;;;;15.91;60.93;101159.41;5072185;28;20108;-64
2021/07/06 22:50:11;;;;;;;8.27;2.10;;;;;;;15.93;61.12;101157.50;5071743;28;20028;-64
2021/07/06 22:52:36;;;;;;;6.95;2.17;;;;;;;15.93;61.11;101160.19;5071412;28;20029;-64